Latest Weather Observations for Hillarys Point Boat Harbour

IDW60801

Issued at 9:03 am WST Tuesday 19 June 2018 (issued every 10 minutes, with the page automatically refreshed every 10 minutes)

About weather observations | Map of weather stations | Latest weather observations for WA | Other Formats
Station Details ID: 009265 Name: HILLARYS BOAT HARBOUR NTC AWS Lat: -31.83 Lon: 115.74 Height: 0.0 m
Data from the previous 72 hours. | See also: Recent months for locations in Western Australia
Date/Time
WST
Temp
°C
App
Temp
°C
Dew
Point
°C
Rel
Hum
%
Delta-T
°C
Wind Press
QNH
hPa
Press
MSL
hPa
Rain since
9am
mm
Dir  Spd
km/h
Gust
km/h
Spd
kts
Gust
kts
19/09:00am 13.0 - - - - NNE 7 13 4 7 1025.2 1025.2 -
19/08:30am 12.0 - - - - NNE 11 15 6 8 1025.0 1025.0 -
19/08:00am 11.7 - - - - NE 9 13 5 7 1024.8 1024.8 -
19/07:30am 11.1 - - - - NE 9 17 5 9 1024.3 1024.3 -
19/07:00am 11.2 - - - - NE 7 13 4 7 1023.9 1023.9 -
19/06:30am 11.3 - - - - NE 9 15 5 8 1023.5 1023.5 -
19/06:00am 11.7 - - - - ENE 9 15 5 8 1023.2 1023.2 -
19/05:30am 12.0 - - - - NNE 6 11 3 6 1022.9 1022.9 -
19/05:00am 12.8 - - - - N 6 13 3 7 1022.7 1022.7 -
19/04:30am 16.0 - - - - SW 9 19 5 10 1022.5 1022.5 -
19/04:00am 15.5 - - - - SW 11 15 6 8 1022.3 1022.3 -
19/03:30am 15.4 - - - - WSW 30 43 16 23 1022.3 1022.3 -
19/03:21am 15.6 - - - - SW 15 39 8 21 1022.2 1022.2 -
19/03:00am 15.0 - - - - SSW 7 13 4 7 1022.2 1022.2 -
19/02:30am 14.6 - - - - SW 28 41 15 22 1022.4 1022.4 -
19/02:00am 14.8 - - - - W 19 32 10 17 1022.0 1022.0 -
19/01:30am 16.0 - - - - WSW 22 30 12 16 1021.8 1021.8 -
19/01:00am 15.6 - - - - WSW 26 41 14 22 1021.7 1021.7 -
19/12:30am 15.8 - - - - SW 20 32 11 17 1021.7 1021.7 -
19/12:00am 15.7 - - - - SW 22 32 12 17 1021.5 1021.5 -
 
Date/Time
WST
Temp
°C
App
Temp
°C
Dew
Point
°C
Rel
Hum
%
Delta-T
°C
Wind Press
QNH
hPa
Press
MSL
hPa
Rain since
9am
mm
Dir  Spd
km/h
Gust
km/h
Spd
kts
Gust
kts
18/11:30pm 15.0 - - - - WSW 26 37 14 20 1021.5 1021.5 -
18/11:00pm 15.6 - - - - SW 26 35 14 19 1021.6 1021.6 -
18/10:30pm 15.6 - - - - WSW 28 39 15 21 1021.5 1021.5 -
18/10:00pm 15.5 - - - - WSW 32 44 17 24 1021.4 1021.4 -
18/09:30pm 15.7 - - - - SW 22 32 12 17 1021.4 1021.4 -
18/09:00pm 16.0 - - - - SW 24 35 13 19 1021.3 1021.3 -
18/08:30pm 15.8 - - - - SW 19 28 10 15 1021.3 1021.3 -
18/08:00pm 15.5 - - - - WSW 22 35 12 19 1020.9 1020.9 -
18/07:30pm 14.7 - - - - WSW 30 46 16 25 1020.8 1020.8 -
18/07:07pm 15.0 - - - - W 30 52 16 28 1020.4 1020.4 -
18/07:00pm 14.2 - - - - WNW 24 44 13 24 1020.4 1020.4 -
18/06:30pm 16.1 - - - - WSW 20 33 11 18 1020.0 1020.0 -
18/06:00pm 15.8 - - - - WSW 24 46 13 25 1019.7 1019.7 -
18/05:30pm 15.6 - - - - WSW 19 28 10 15 1019.1 1019.1 -
18/05:00pm 15.7 - - - - WSW 26 35 14 19 1018.9 1018.9 -
18/04:30pm 15.8 - - - - WSW 26 39 14 21 1018.2 1018.2 -
18/04:00pm 15.9 - - - - SW 26 37 14 20 1017.5 1017.5 -
18/03:30pm 16.1 - - - - SW 30 41 16 22 1016.7 1016.7 -
18/03:00pm 15.6 - - - - SW 32 46 17 25 1016.9 1016.9 -
18/02:30pm 15.6 - - - - SW 30 44 16 24 1016.8 1016.8 -
18/02:12pm 15.9 - - - - SW 32 54 17 29 1016.7 1016.7 -
18/02:00pm 15.8 - - - - SW 35 46 19 25 1016.8 1016.8 -
18/01:30pm 16.0 - - - - SW 33 48 18 26 1016.9 1016.9 -
18/01:00pm 16.1 - - - - SW 33 48 18 26 1016.6 1016.6 -
18/12:30pm 15.9 - - - - SW 35 50 19 27 1016.4 1016.4 -
18/12:00pm 15.9 - - - - WSW 41 57 22 31 1016.3 1016.3 -
18/11:30am 16.5 - - - - WSW 32 50 17 27 1016.2 1016.2 -
18/11:00am 14.5 - - - - WSW 41 74 22 40 1016.4 1016.4 -
18/10:59am 14.5 - - - - WSW 39 74 21 40 1016.4 1016.4 -
18/10:58am 15.3 - - - - W 37 74 20 40 1016.4 1016.4 -
18/10:57am 16.4 - - - - W 33 74 18 40 1016.3 1016.3 -
18/10:56am 17.1 - - - - W 32 54 17 29 1016.3 1016.3 -
18/10:30am 17.0 - - - - WSW 33 46 18 25 1016.0 1016.0 -
18/10:10am 16.9 - - - - WSW 33 54 18 29 1015.9 1015.9 -
18/10:00am 17.0 - - - - WSW 35 50 19 27 1015.9 1015.9 -
18/09:30am 17.2 - - - - W 30 48 16 26 1015.3 1015.3 -
18/09:00am 17.1 - - - - WSW 37 56 20 30 1014.9 1014.9 -
18/08:36am 17.3 - - - - WSW 33 54 18 29 1014.4 1014.4 -
18/08:30am 17.3 - - - - WSW 32 48 17 26 1014.4 1014.4 -
18/08:09am 17.3 - - - - WSW 33 54 18 29 1014.1 1014.1 -
18/08:00am 17.1 - - - - WSW 37 52 20 28 1014.0 1014.0 -
18/07:51am 17.4 - - - - WSW 33 52 18 28 1013.9 1013.9 -
18/07:30am 17.3 - - - - WSW 37 52 20 28 1013.4 1013.4 -
18/07:00am 17.5 - - - - WSW 39 54 21 29 1012.6 1012.6 -
18/06:34am 17.5 - - - - W 28 46 15 25 1012.5 1012.5 -
18/06:30am 16.5 - - - - W 22 39 12 21 1012.6 1012.6 -
18/06:00am 15.3 - - - - W 28 50 15 27 1012.1 1012.1 -
18/05:52am 14.7 - - - - W 28 52 15 28 1012.1 1012.1 -
18/05:30am 16.8 - - - - WNW 20 33 11 18 1011.9 1011.9 -
18/05:00am 16.0 - - - - W 24 37 13 20 1011.9 1011.9 -
18/04:30am 16.3 - - - - W 30 43 16 23 1011.9 1011.9 -
18/04:11am 16.1 - - - - W 28 48 15 26 1011.8 1011.8 -
18/04:00am 15.9 - - - - WSW 32 48 17 26 1011.5 1011.5 -
18/03:42am 15.6 - - - - WSW 35 54 19 29 1011.5 1011.5 -
18/03:30am 15.5 - - - - WSW 43 57 23 31 1011.5 1011.5 -
18/03:00am 15.4 - - - - WSW 37 57 20 31 1011.1 1011.1 -
18/02:49am 16.9 - - - - WSW 28 50 15 27 1010.9 1010.9 -
18/02:30am 17.6 - - - - WSW 32 43 17 23 1010.8 1010.8 -
18/02:00am 17.6 - - - - WSW 35 48 19 26 1010.8 1010.8 -
18/01:32am 17.5 - - - - W 22 46 12 25 1010.4 1010.4 -
18/01:30am 17.4 - - - - WNW 20 37 11 20 1010.5 1010.5 -
18/01:00am 17.8 - - - - N 17 30 9 16 1010.5 1010.5 -
18/12:30am 17.2 - - - - NNW 22 43 12 23 1010.8 1010.8 -
18/12:00am 19.1 - - - - N 11 19 6 10 1010.4 1010.4 -
 
Date/Time
WST
Temp
°C
App
Temp
°C
Dew
Point
°C
Rel
Hum
%
Delta-T
°C
Wind Press
QNH
hPa
Press
MSL
hPa
Rain since
9am
mm
Dir  Spd
km/h
Gust
km/h
Spd
kts
Gust
kts
17/11:30pm 19.3 - - - - N 15 24 8 13 1010.8 1010.8 -
17/11:00pm 19.7 - - - - N 15 26 8 14 1011.2 1011.2 -
17/10:30pm 20.4 - - - - N 20 33 11 18 1011.1 1011.1 -
17/10:00pm 20.2 - - - - N 17 26 9 14 1011.4 1011.4 -
17/09:30pm 19.7 - - - - N 15 22 8 12 1011.8 1011.8 -
17/09:00pm 19.9 - - - - N 15 24 8 13 1012.0 1012.0 -
17/08:30pm 20.4 - - - - N 15 26 8 14 1012.4 1012.4 -
17/08:00pm 19.8 - - - - NNE 11 19 6 10 1012.4 1012.4 -
17/07:30pm 19.6 - - - - N 11 20 6 11 1012.6 1012.6 -
17/07:00pm 19.2 - - - - NNE 9 15 5 8 1012.8 1012.8 -
17/06:30pm 19.5 - - - - N 9 15 5 8 1012.9 1012.9 -
17/06:00pm 19.6 - - - - N 13 20 7 11 1012.7 1012.7 -
17/05:30pm 19.6 - - - - N 13 22 7 12 1012.7 1012.7 -
17/05:00pm 19.9 - - - - N 13 24 7 13 1012.7 1012.7 -
17/04:30pm 20.5 - - - - N 13 22 7 12 1013.1 1013.1 -
17/04:00pm 20.6 - - - - NNW 13 22 7 12 1013.5 1013.5 -
17/03:30pm 21.2 - - - - NNW 11 20 6 11 1013.7 1013.7 -
17/03:00pm 20.8 - - - - NNW 11 20 6 11 1013.9 1013.9 -
17/02:30pm 21.1 - - - - NNW 15 22 8 12 1013.9 1013.9 -
17/02:00pm 22.9 - - - - N 15 26 8 14 1014.2 1014.2 -
17/01:30pm 22.8 - - - - N 13 22 7 12 1014.4 1014.4 -
17/01:00pm 22.0 - - - - NNE 17 32 9 17 1014.7 1014.7 -
17/12:30pm 21.2 - - - - NNE 17 28 9 15 1015.4 1015.4 -
17/12:00pm 20.4 - - - - NE 17 32 9 17 1015.9 1015.9 -
17/11:30am 19.7 - - - - NNE 20 32 11 17 1016.4 1016.4 -
17/11:00am 19.3 - - - - NNE 19 32 10 17 1016.8 1016.8 -
17/10:30am 18.5 - - - - NNE 19 33 10 18 1017.3 1017.3 -
17/10:00am 17.7 - - - - NNE 19 33 10 18 1017.6 1017.6 -
17/09:30am 16.8 - - - - NE 19 32 10 17 1017.9 1017.9 -
17/09:00am 15.8 - - - - NE 19 35 10 19 1018.1 1018.1 -
17/08:30am 15.2 - - - - NE 20 33 11 18 1018.2 1018.2 -
17/08:00am 14.7 - - - - NNE 19 32 10 17 1018.3 1018.3 -
17/07:30am 14.4 - - - - NE 17 28 9 15 1018.2 1018.2 -
17/07:00am 14.4 - - - - NE 17 30 9 16 1018.1 1018.1 -
17/06:30am 14.7 - - - - NE 17 30 9 16 1018.1 1018.1 -
17/06:00am 14.8 - - - - NE 15 30 8 16 1018.2 1018.2 -
17/05:30am 14.6 - - - - NE 13 30 7 16 1018.4 1018.4 -
17/05:00am 14.3 - - - - NE 15 28 8 15 1018.4 1018.4 -
17/04:30am 14.6 - - - - NE 13 26 7 14 1018.7 1018.7 -
17/04:00am 14.1 - - - - NE 13 26 7 14 1019.0 1019.0 -
17/03:30am 13.9 - - - - ENE 13 22 7 12 1019.3 1019.3 -
17/03:00am 13.9 - - - - NE 11 20 6 11 1019.6 1019.6 -
17/02:30am 13.8 - - - - ENE 13 19 7 10 1019.9 1019.9 -
17/02:00am 13.6 - - - - ENE 15 22 8 12 1020.1 1020.1 -
17/01:30am 13.5 - - - - ENE 13 19 7 10 1020.4 1020.4 -
17/01:00am 13.6 - - - - ENE 11 19 6 10 1020.5 1020.5 -
17/12:30am 13.5 - - - - ENE 11 19 6 10 1020.7 1020.7 -
17/12:00am 13.1 - - - - ENE 11 15 6 8 1020.9 1020.9 -
 
Date/Time
WST
Temp
°C
App
Temp
°C
Dew
Point
°C
Rel
Hum
%
Delta-T
°C
Wind Press
QNH
hPa
Press
MSL
hPa
Rain since
9am
mm
Dir  Spd
km/h
Gust
km/h
Spd
kts
Gust
kts
16/11:30pm 13.1 - - - - ENE 9 13 5 7 1021.2 1021.2 -
16/11:00pm 13.1 - - - - ENE 9 13 5 7 1021.3 1021.3 -
16/10:30pm 13.1 - - - - ENE 6 9 3 5 1021.5 1021.5 -
16/10:00pm 13.8 - - - - ENE 11 15 6 8 1021.6 1021.6 -
16/09:30pm 14.6 - - - - ENE 11 17 6 9 1021.9 1021.9 -
16/09:00pm 14.6 - - - - ENE 9 13 5 7 1022.1 1022.1 -
16/08:30pm 15.1 - - - - E 7 11 4 6 1022.4 1022.4 -
16/08:00pm 15.2 - - - - ENE 7 11 4 6 1022.4 1022.4 -
16/07:30pm 16.1 - - - - E 7 13 4 7 1022.5 1022.5 -
16/07:00pm 16.9 - - - - ENE 6 9 3 5 1022.5 1022.5 -
16/06:30pm 17.4 - - - - E 6 7 3 4 1022.4 1022.4 -
16/06:00pm 18.4 - - - - ENE 6 7 3 4 1022.3 1022.3 -
16/05:30pm 19.4 - - - - ENE 6 9 3 5 1022.1 1022.1 -
16/05:00pm 20.2 - - - - NE 7 15 4 8 1022.1 1022.1 -
16/04:30pm 20.6 - - - - NNE 11 22 6 12 1022.2 1022.2 -
16/04:00pm 21.0 - - - - NNE 13 20 7 11 1022.3 1022.3 -
16/03:30pm 21.1 - - - - NNE 11 20 6 11 1022.4 1022.4 -
16/03:00pm 20.8 - - - - NNE 17 26 9 14 1022.4 1022.4 -
16/02:30pm 20.9 - - - - NE 15 24 8 13 1022.3 1022.3 -
16/02:00pm 20.8 - - - - NNE 15 26 8 14 1022.6 1022.6 -
16/01:30pm 20.6 - - - - NNE 17 33 9 18 1022.9 1022.9 -
16/01:00pm 20.6 - - - - NNE 19 32 10 17 1023.3 1023.3 -
16/12:30pm 20.3 - - - - NNE 19 30 10 16 1023.9 1023.9 -
16/12:00pm 20.0 - - - - NNE 17 32 9 17 1024.4 1024.4 -
16/11:30am 19.6 - - - - NE 13 22 7 12 1024.8 1024.8 -
16/11:00am 18.8 - - - - NE 11 20 6 11 1025.5 1025.5 -
16/10:30am 17.7 - - - - NE 15 26 8 14 1025.9 1025.9 -
16/10:00am 16.6 - - - - NE 13 24 7 13 1026.3 1026.3 -
16/09:30am 15.4 - - - - ENE 15 28 8 15 1026.2 1026.2 -

Other Formats:

Comma delimited format used in spreadsheet applications
http://www.bom.gov.au/fwo/IDW60801/IDW60801.95605.axf

JavaScript Object Notation format (JSON) in row-major order
http://www.bom.gov.au/fwo/IDW60801/IDW60801.95605.json